sensor_id;sensor_type;location;lat;lon;timestamp;P1;durP1;ratioP1;P2;durP2;ratioP2
75798;SDS011;65035;44.726;37.764;2023-01-26T00:00:11;6.60;;;4.70;;
75798;SDS011;65035;44.726;37.764;2023-01-26T00:01:18;6.03;;;3.78;;
75798;SDS011;65035;44.726;37.764;2023-01-26T00:02:23;7.13;;;4.35;;
75798;SDS011;65035;44.726;37.764;2023-01-26T00:03:26;6.65;;;4.32;;
75798;SDS011;65035;44.726;37.764;2023-01-26T00:04:29;7.03;;;4.13;;
75798;SDS011;65035;44.726;37.764;2023-01-26T00:05:37;5.43;;;3.50;;
75798;SDS011;65035;44.726;37.764;2023-01-26T00:06:43;7.30;;;4.22;;
75798;SDS011;65035;44.726;37.764;2023-01-26T00:07:46;6.53;;;4.25;;
75798;SDS011;65035;44.726;37.764;2023-01-26T00:08:50;7.30;;;4.00;;
75798;SDS011;65035;44.726;37.764;2023-01-26T00:09:54;5.78;;;3.75;;
75798;SDS011;65035;44.726;37.764;2023-01-26T00:10:57;7.47;;;4.20;;
75798;SDS011;65035;44.726;37.764;2023-01-26T00:12:08;6.45;;;4.57;;
75798;SDS011;65035;44.726;37.764;2023-01-26T00:13:11;6.70;;;4.18;;
75798;SDS011;65035;44.726;37.764;2023-01-26T00:14:14;6.50;;;4.57;;
75798;SDS011;65035;44.726;37.764;2023-01-26T00:15:17;6.82;;;3.80;;
75798;SDS011;65035;44.726;37.764;2023-01-26T00:16:20;7.00;;;4.63;;
75798;SDS011;65035;44.726;37.764;2023-01-26T00:17:23;6.43;;;4.25;;
75798;SDS011;65035;44.726;37.764;2023-01-26T00:18:29;7.57;;;5.05;;
75798;SDS011;65035;44.726;37.764;2023-01-26T00:19:33;7.30;;;4.18;;
75798;SDS011;65035;44.726;37.764;2023-01-26T00:20:36;6.05;;;4.32;;
75798;SDS011;65035;44.726;37.764;2023-01-26T00:21:38;6.40;;;4.90;;
75798;SDS011;65035;44.726;37.764;2023-01-26T00:22:41;6.63;;;5.13;;
75798;SDS011;65035;44.726;37.764;2023-01-26T00:23:45;6.70;;;4.15;;
75798;SDS011;65035;44.726;37.764;2023-01-26T00:24:51;7.38;;;4.63;;
75798;SDS011;65035;44.726;37.764;2023-01-26T00:25:54;6.35;;;3.75;;
75798;SDS011;65035;44.726;37.764;2023-01-26T00:26:57;6.50;;;4.60;;
75798;SDS011;65035;44.726;37.764;2023-01-26T00:28:00;7.45;;;5.68;;
75798;SDS011;65035;44.726;37.764;2023-01-26T00:29:04;6.88;;;4.10;;
75798;SDS011;65035;44.726;37.764;2023-01-26T00:30:07;7.57;;;4.50;;
75798;SDS011;65035;44.726;37.764;2023-01-26T00:31:15;6.80;;;3.95;;
75798;SDS011;65035;44.726;37.764;2023-01-26T00:32:20;6.32;;;4.35;;
75798;SDS011;65035;44.726;37.764;2023-01-26T00:33:23;5.97;;;3.83;;
75798;SDS011;65035;44.726;37.764;2023-01-26T00:34:26;6.63;;;4.47;;
75798;SDS011;65035;44.726;37.764;2023-01-26T00:35:29;7.28;;;4.95;;
75798;SDS011;65035;44.726;37.764;2023-01-26T00:36:31;7.03;;;5.93;;
75798;SDS011;65035;44.726;37.764;2023-01-26T00:37:36;6.07;;;4.10;;
75798;SDS011;65035;44.726;37.764;2023-01-26T00:38:42;6.90;;;4.28;;
75798;SDS011;65035;44.726;37.764;2023-01-26T00:39:45;6.97;;;4.43;;
75798;SDS011;65035;44.726;37.764;2023-01-26T00:40:48;6.43;;;3.95;;
75798;SDS011;65035;44.726;37.764;2023-01-26T00:41:51;6.50;;;3.92;;
75798;SDS011;65035;44.726;37.764;2023-01-26T00:43:11;7.55;;;4.70;;
75798;SDS011;65035;44.726;37.764;2023-01-26T00:44:14;6.75;;;4.28;;
75798;SDS011;65035;44.726;37.764;2023-01-26T00:45:17;6.00;;;4.10;;
75798;SDS011;65035;44.726;37.764;2023-01-26T00:46:20;7.20;;;4.57;;
75798;SDS011;65035;44.726;37.764;2023-01-26T00:47:23;7.68;;;4.43;;
75798;SDS011;65035;44.726;37.764;2023-01-26T00:48:26;6.45;;;3.92;;
75798;SDS011;65035;44.726;37.764;2023-01-26T00:49:29;7.25;;;4.35;;
75798;SDS011;65035;44.726;37.764;2023-01-26T00:50:33;6.70;;;3.97;;
75798;SDS011;65035;44.726;37.764;2023-01-26T00:51:36;7.03;;;4.38;;
75798;SDS011;65035;44.726;37.764;2023-01-26T00:52:39;5.80;;;3.95;;
75798;SDS011;65035;44.726;37.764;2023-01-26T00:53:42;7.45;;;4.88;;
75798;SDS011;65035;44.726;37.764;2023-01-26T00:54:46;6.95;;;4.38;;
75798;SDS011;65035;44.726;37.764;2023-01-26T00:55:49;6.97;;;4.78;;
75798;SDS011;65035;44.726;37.764;2023-01-26T00:56:54;7.05;;;4.70;;
75798;SDS011;65035;44.726;37.764;2023-01-26T00:57:58;6.13;;;3.88;;
75798;SDS011;65035;44.726;37.764;2023-01-26T00:59:04;6.80;;;4.03;;
75798;SDS011;65035;44.726;37.764;2023-01-26T01:00:07;7.05;;;4.57;;
75798;SDS011;65035;44.726;37.764;2023-01-26T01:01:14;6.25;;;4.45;;
75798;SDS011;65035;44.726;37.764;2023-01-26T01:02:17;6.45;;;4.05;;
75798;SDS011;65035;44.726;37.764;2023-01-26T01:03:20;6.88;;;4.55;;
75798;SDS011;65035;44.726;37.764;2023-01-26T01:04:24;5.85;;;4.10;;
75798;SDS011;65035;44.726;37.764;2023-01-26T01:05:27;7.20;;;4.43;;
75798;SDS011;65035;44.726;37.764;2023-01-26T01:06:31;6.78;;;4.32;;
75798;SDS011;65035;44.726;37.764;2023-01-26T01:07:34;5.93;;;4.03;;
75798;SDS011;65035;44.726;37.764;2023-01-26T01:08:37;7.53;;;4.57;;
75798;SDS011;65035;44.726;37.764;2023-01-26T01:09:41;5.80;;;3.92;;
75798;SDS011;65035;44.726;37.764;2023-01-26T01:10:43;7.43;;;5.15;;
75798;SDS011;65035;44.726;37.764;2023-01-26T01:11:46;6.40;;;3.75;;
75798;SDS011;65035;44.726;37.764;2023-01-26T01:12:49;6.38;;;4.15;;
75798;SDS011;65035;44.726;37.764;2023-01-26T01:13:52;5.32;;;4.25;;
75798;SDS011;65035;44.726;37.764;2023-01-26T01:14:55;7.03;;;4.15;;
75798;SDS011;65035;44.726;37.764;2023-01-26T01:15:58;6.78;;;4.22;;
75798;SDS011;65035;44.726;37.764;2023-01-26T01:17:01;5.88;;;4.53;;
75798;SDS011;65035;44.726;37.764;2023-01-26T01:18:04;6.65;;;3.75;;
75798;SDS011;65035;44.726;37.764;2023-01-26T01:19:07;7.20;;;4.47;;
75798;SDS011;65035;44.726;37.764;2023-01-26T01:20:16;6.68;;;4.22;;
75798;SDS011;65035;44.726;37.764;2023-01-26T01:21:21;7.22;;;4.63;;
75798;SDS011;65035;44.726;37.764;2023-01-26T01:22:24;7.07;;;4.80;;
75798;SDS011;65035;44.726;37.764;2023-01-26T01:23:27;7.10;;;4.35;;
75798;SDS011;65035;44.726;37.764;2023-01-26T01:24:30;6.63;;;4.53;;
75798;SDS011;65035;44.726;37.764;2023-01-26T01:25:35;6.82;;;4.65;;
75798;SDS011;65035;44.726;37.764;2023-01-26T01:26:38;6.80;;;4.28;;
75798;SDS011;65035;44.726;37.764;2023-01-26T01:27:41;5.85;;;4.35;;
75798;SDS011;65035;44.726;37.764;2023-01-26T01:28:47;6.15;;;3.92;;
75798;SDS011;65035;44.726;37.764;2023-01-26T01:29:50;6.85;;;4.25;;
75798;SDS011;65035;44.726;37.764;2023-01-26T01:30:56;7.13;;;4.57;;
75798;SDS011;65035;44.726;37.764;2023-01-26T01:31:59;6.43;;;4.43;;
75798;SDS011;65035;44.726;37.764;2023-01-26T01:33:02;5.97;;;3.45;;
75798;SDS011;65035;44.726;37.764;2023-01-26T01:34:05;6.25;;;4.22;;
75798;SDS011;65035;44.726;37.764;2023-01-26T01:35:08;6.57;;;4.30;;
75798;SDS011;65035;44.726;37.764;2023-01-26T01:36:12;6.38;;;4.07;;
75798;SDS011;65035;44.726;37.764;2023-01-26T01:37:17;6.78;;;4.13;;
75798;SDS011;65035;44.726;37.764;2023-01-26T01:38:19;6.80;;;4.32;;
75798;SDS011;65035;44.726;37.764;2023-01-26T01:39:22;6.80;;;3.97;;
75798;SDS011;65035;44.726;37.764;2023-01-26T01:40:25;7.10;;;3.97;;
75798;SDS011;65035;44.726;37.764;2023-01-26T01:41:29;7.63;;;4.68;;
75798;SDS011;65035;44.726;37.764;2023-01-26T01:42:32;7.05;;;4.75;;
75798;SDS011;65035;44.726;37.764;2023-01-26T01:43:35;6.28;;;4.07;;
75798;SDS011;65035;44.726;37.764;2023-01-26T01:44:41;6.97;;;4.07;;
75798;SDS011;65035;44.726;37.764;2023-01-26T01:45:45;7.55;;;4.95;;
75798;SDS011;65035;44.726;37.764;2023-01-26T01:48:00;6.68;;;4.75;;
75798;SDS011;65035;44.726;37.764;2023-01-26T01:49:06;5.90;;;4.03;;
75798;SDS011;65035;44.726;37.764;2023-01-26T01:50:20;6.95;;;4.15;;
75798;SDS011;65035;44.726;37.764;2023-01-26T01:51:30;6.60;;;4.63;;
75798;SDS011;65035;44.726;37.764;2023-01-26T01:52:44;7.28;;;4.60;;
75798;SDS011;65035;44.726;37.764;2023-01-26T01:54:53;7.20;;;4.40;;
75798;SDS011;65035;44.726;37.764;2023-01-26T01:56:05;7.55;;;4.88;;
75798;SDS011;65035;44.726;37.764;2023-01-26T01:57:13;7.68;;;4.43;;
75798;SDS011;65035;44.726;37.764;2023-01-26T01:58:29;6.30;;;4.35;;
75798;SDS011;65035;44.726;37.764;2023-01-26T01:59:33;6.43;;;3.85;;
75798;SDS011;65035;44.726;37.764;2023-01-26T02:00:36;8.25;;;4.50;;
75798;SDS011;65035;44.726;37.764;2023-01-26T02:01:39;5.88;;;4.45;;
75798;SDS011;65035;44.726;37.764;2023-01-26T02:04:07;6.88;;;4.28;;
75798;SDS011;65035;44.726;37.764;2023-01-26T02:05:16;7.78;;;3.75;;
75798;SDS011;65035;44.726;37.764;2023-01-26T02:06:33;6.35;;;3.85;;
75798;SDS011;65035;44.726;37.764;2023-01-26T02:07:41;6.55;;;4.00;;
75798;SDS011;65035;44.726;37.764;2023-01-26T02:08:46;6.20;;;4.35;;
75798;SDS011;65035;44.726;37.764;2023-01-26T02:09:52;6.80;;;4.15;;
75798;SDS011;65035;44.726;37.764;2023-01-26T02:12:37;7.22;;;4.80;;
75798;SDS011;65035;44.726;37.764;2023-01-26T02:13:41;8.32;;;4.82;;
75798;SDS011;65035;44.726;37.764;2023-01-26T02:14:46;6.88;;;3.83;;
75798;SDS011;65035;44.726;37.764;2023-01-26T02:16:09;7.65;;;5.20;;
75798;SDS011;65035;44.726;37.764;2023-01-26T02:17:12;7.82;;;4.30;;
75798;SDS011;65035;44.726;37.764;2023-01-26T02:18:15;7.70;;;4.72;;
75798;SDS011;65035;44.726;37.764;2023-01-26T02:19:21;7.80;;;4.60;;
75798;SDS011;65035;44.726;37.764;2023-01-26T02:21:42;7.85;;;4.40;;
75798;SDS011;65035;44.726;37.764;2023-01-26T02:24:16;7.97;;;4.95;;
75798;SDS011;65035;44.726;37.764;2023-01-26T02:25:32;7.55;;;4.53;;
75798;SDS011;65035;44.726;37.764;2023-01-26T02:26:44;7.95;;;4.90;;
75798;SDS011;65035;44.726;37.764;2023-01-26T02:27:48;6.20;;;4.15;;
75798;SDS011;65035;44.726;37.764;2023-01-26T02:28:51;6.47;;;3.65;;
75798;SDS011;65035;44.726;37.764;2023-01-26T02:29:55;8.38;;;4.65;;
75798;SDS011;65035;44.726;37.764;2023-01-26T02:31:01;7.47;;;4.28;;
75798;SDS011;65035;44.726;37.764;2023-01-26T02:33:13;6.28;;;3.88;;
75798;SDS011;65035;44.726;37.764;2023-01-26T02:34:20;7.28;;;4.88;;
75798;SDS011;65035;44.726;37.764;2023-01-26T02:35:23;7.35;;;4.45;;
75798;SDS011;65035;44.726;37.764;2023-01-26T02:36:27;8.38;;;4.40;;
75798;SDS011;65035;44.726;37.764;2023-01-26T02:37:33;8.63;;;5.65;;
75798;SDS011;65035;44.726;37.764;2023-01-26T02:38:39;7.60;;;5.13;;
75798;SDS011;65035;44.726;37.764;2023-01-26T02:39:58;7.70;;;4.18;;
75798;SDS011;65035;44.726;37.764;2023-01-26T02:41:07;7.82;;;4.63;;
75798;SDS011;65035;44.726;37.764;2023-01-26T02:42:13;8.55;;;4.57;;
75798;SDS011;65035;44.726;37.764;2023-01-26T02:43:35;6.35;;;4.43;;
75798;SDS011;65035;44.726;37.764;2023-01-26T02:44:38;8.10;;;4.50;;
75798;SDS011;65035;44.726;37.764;2023-01-26T02:45:45;7.55;;;5.07;;
75798;SDS011;65035;44.726;37.764;2023-01-26T02:46:48;7.45;;;5.03;;
75798;SDS011;65035;44.726;37.764;2023-01-26T02:47:51;7.10;;;4.70;;
75798;SDS011;65035;44.726;37.764;2023-01-26T02:48:54;8.50;;;5.75;;
75798;SDS011;65035;44.726;37.764;2023-01-26T02:50:16;7.00;;;4.30;;
75798;SDS011;65035;44.726;37.764;2023-01-26T02:51:19;7.80;;;4.65;;
75798;SDS011;65035;44.726;37.764;2023-01-26T02:52:25;8.05;;;5.00;;
75798;SDS011;65035;44.726;37.764;2023-01-26T02:54:37;6.07;;;3.63;;
75798;SDS011;65035;44.726;37.764;2023-01-26T02:55:58;7.57;;;4.47;;
75798;SDS011;65035;44.726;37.764;2023-01-26T02:57:01;7.60;;;4.43;;
75798;SDS011;65035;44.726;37.764;2023-01-26T02:58:04;7.13;;;4.15;;
75798;SDS011;65035;44.726;37.764;2023-01-26T02:59:08;8.18;;;4.97;;
75798;SDS011;65035;44.726;37.764;2023-01-26T03:00:17;8.52;;;4.90;;
75798;SDS011;65035;44.726;37.764;2023-01-26T03:01:23;7.97;;;4.80;;
75798;SDS011;65035;44.726;37.764;2023-01-26T03:02:26;7.50;;;4.70;;
75798;SDS011;65035;44.726;37.764;2023-01-26T03:03:31;7.88;;;4.40;;
75798;SDS011;65035;44.726;37.764;2023-01-26T03:04:43;7.20;;;4.43;;
75798;SDS011;65035;44.726;37.764;2023-01-26T03:05:47;7.85;;;5.07;;
75798;SDS011;65035;44.726;37.764;2023-01-26T03:06:50;8.02;;;4.57;;
75798;SDS011;65035;44.726;37.764;2023-01-26T03:07:54;7.30;;;4.40;;
75798;SDS011;65035;44.726;37.764;2023-01-26T03:09:05;8.02;;;4.78;;
75798;SDS011;65035;44.726;37.764;2023-01-26T03:10:08;7.40;;;5.32;;
75798;SDS011;65035;44.726;37.764;2023-01-26T03:11:12;7.60;;;4.32;;
75798;SDS011;65035;44.726;37.764;2023-01-26T03:12:16;6.63;;;4.35;;
75798;SDS011;65035;44.726;37.764;2023-01-26T03:13:21;7.43;;;4.65;;
75798;SDS011;65035;44.726;37.764;2023-01-26T03:14:24;7.78;;;4.47;;
75798;SDS011;65035;44.726;37.764;2023-01-26T03:15:27;7.22;;;4.72;;
75798;SDS011;65035;44.726;37.764;2023-01-26T03:16:49;6.10;;;4.07;;
75798;SDS011;65035;44.726;37.764;2023-01-26T03:17:59;8.45;;;4.07;;
75798;SDS011;65035;44.726;37.764;2023-01-26T03:19:24;6.68;;;4.05;;
75798;SDS011;65035;44.726;37.764;2023-01-26T03:20:46;7.05;;;4.20;;
75798;SDS011;65035;44.726;37.764;2023-01-26T03:22:08;7.18;;;4.25;;
75798;SDS011;65035;44.726;37.764;2023-01-26T03:23:32;8.25;;;4.18;;
75798;SDS011;65035;44.726;37.764;2023-01-26T03:24:55;6.63;;;4.80;;
75798;SDS011;65035;44.726;37.764;2023-01-26T03:26:18;5.43;;;3.78;;
75798;SDS011;65035;44.726;37.764;2023-01-26T03:27:43;8.60;;;4.47;;
75798;SDS011;65035;44.726;37.764;2023-01-26T03:28:48;7.78;;;5.05;;
75798;SDS011;65035;44.726;37.764;2023-01-26T03:29:52;6.55;;;4.28;;
75798;SDS011;65035;44.726;37.764;2023-01-26T03:30:56;6.75;;;3.78;;
75798;SDS011;65035;44.726;37.764;2023-01-26T03:32:00;6.53;;;4.85;;
75798;SDS011;65035;44.726;37.764;2023-01-26T03:33:03;7.85;;;5.38;;
75798;SDS011;65035;44.726;37.764;2023-01-26T03:35:09;7.63;;;4.28;;
75798;SDS011;65035;44.726;37.764;2023-01-26T03:36:17;8.30;;;4.43;;
75798;SDS011;65035;44.726;37.764;2023-01-26T03:37:20;8.70;;;5.82;;
75798;SDS011;65035;44.726;37.764;2023-01-26T03:38:38;7.60;;;5.18;;
75798;SDS011;65035;44.726;37.764;2023-01-26T03:39:41;7.20;;;5.35;;
75798;SDS011;65035;44.726;37.764;2023-01-26T03:41:04;7.70;;;5.07;;
75798;SDS011;65035;44.726;37.764;2023-01-26T03:42:26;7.18;;;5.07;;
75798;SDS011;65035;44.726;37.764;2023-01-26T03:43:47;7.50;;;4.15;;
75798;SDS011;65035;44.726;37.764;2023-01-26T03:45:09;7.85;;;4.70;;
75798;SDS011;65035;44.726;37.764;2023-01-26T03:46:33;8.35;;;5.47;;
75798;SDS011;65035;44.726;37.764;2023-01-26T03:48:07;7.45;;;5.38;;
75798;SDS011;65035;44.726;37.764;2023-01-26T03:49:30;8.05;;;5.07;;
75798;SDS011;65035;44.726;37.764;2023-01-26T03:50:51;7.80;;;5.65;;
75798;SDS011;65035;44.726;37.764;2023-01-26T03:52:13;7.63;;;5.40;;
75798;SDS011;65035;44.726;37.764;2023-01-26T03:53:36;7.43;;;5.03;;
75798;SDS011;65035;44.726;37.764;2023-01-26T03:54:57;8.75;;;5.07;;
75798;SDS011;65035;44.726;37.764;2023-01-26T03:56:19;8.93;;;5.80;;
75798;SDS011;65035;44.726;37.764;2023-01-26T03:57:29;8.00;;;5.00;;
75798;SDS011;65035;44.726;37.764;2023-01-26T03:58:32;8.40;;;5.20;;
75798;SDS011;65035;44.726;37.764;2023-01-26T03:59:36;7.72;;;5.30;;
75798;SDS011;65035;44.726;37.764;2023-01-26T04:00:43;9.18;;;5.80;;
75798;SDS011;65035;44.726;37.764;2023-01-26T04:01:46;8.27;;;5.65;;
75798;SDS011;65035;44.726;37.764;2023-01-26T04:03:09;8.68;;;5.57;;
75798;SDS011;65035;44.726;37.764;2023-01-26T04:04:30;8.00;;;6.15;;
75798;SDS011;65035;44.726;37.764;2023-01-26T04:05:56;8.38;;;4.70;;
75798;SDS011;65035;44.726;37.764;2023-01-26T04:07:22;7.30;;;4.40;;
75798;SDS011;65035;44.726;37.764;2023-01-26T04:08:45;7.63;;;4.25;;
75798;SDS011;65035;44.726;37.764;2023-01-26T04:09:49;7.00;;;3.88;;
75798;SDS011;65035;44.726;37.764;2023-01-26T04:10:52;6.22;;;4.07;;
75798;SDS011;65035;44.726;37.764;2023-01-26T04:11:56;6.95;;;4.05;;
75798;SDS011;65035;44.726;37.764;2023-01-26T04:13:00;7.05;;;4.50;;
75798;SDS011;65035;44.726;37.764;2023-01-26T04:14:27;7.80;;;4.97;;
75798;SDS011;65035;44.726;37.764;2023-01-26T04:15:49;8.10;;;4.75;;
75798;SDS011;65035;44.726;37.764;2023-01-26T04:17:11;17.88;;;6.72;;
75798;SDS011;65035;44.726;37.764;2023-01-26T04:18:32;22.27;;;7.43;;
75798;SDS011;65035;44.726;37.764;2023-01-26T04:19:54;34.35;;;8.63;;
75798;SDS011;65035;44.726;37.764;2023-01-26T04:21:17;30.85;;;8.80;;
75798;SDS011;65035;44.726;37.764;2023-01-26T04:22:45;33.97;;;9.88;;
75798;SDS011;65035;44.726;37.764;2023-01-26T04:23:53;23.45;;;7.88;;
75798;SDS011;65035;44.726;37.764;2023-01-26T04:25:00;30.10;;;9.05;;
75798;SDS011;65035;44.726;37.764;2023-01-26T04:26:03;29.20;;;9.27;;
75798;SDS011;65035;44.726;37.764;2023-01-26T04:27:06;24.95;;;8.38;;
75798;SDS011;65035;44.726;37.764;2023-01-26T04:28:12;29.38;;;8.38;;
75798;SDS011;65035;44.726;37.764;2023-01-26T04:29:16;33.65;;;9.05;;
75798;SDS011;65035;44.726;37.764;2023-01-26T04:30:20;29.48;;;8.43;;
75798;SDS011;65035;44.726;37.764;2023-01-26T04:31:24;28.05;;;8.40;;
75798;SDS011;65035;44.726;37.764;2023-01-26T04:32:27;28.70;;;8.60;;
75798;SDS011;65035;44.726;37.764;2023-01-26T04:33:30;30.27;;;9.45;;
75798;SDS011;65035;44.726;37.764;2023-01-26T04:34:33;31.42;;;9.60;;
75798;SDS011;65035;44.726;37.764;2023-01-26T04:35:40;29.05;;;8.93;;
75798;SDS011;65035;44.726;37.764;2023-01-26T04:36:43;27.15;;;8.93;;
75798;SDS011;65035;44.726;37.764;2023-01-26T04:37:50;31.15;;;8.63;;
75798;SDS011;65035;44.726;37.764;2023-01-26T04:38:53;30.15;;;8.77;;
75798;SDS011;65035;44.726;37.764;2023-01-26T04:39:57;24.75;;;8.60;;
75798;SDS011;65035;44.726;37.764;2023-01-26T04:41:01;30.75;;;8.55;;
75798;SDS011;65035;44.726;37.764;2023-01-26T04:42:08;28.10;;;8.48;;
75798;SDS011;65035;44.726;37.764;2023-01-26T04:43:11;23.17;;;8.32;;
75798;SDS011;65035;44.726;37.764;2023-01-26T04:44:14;23.92;;;8.30;;
75798;SDS011;65035;44.726;37.764;2023-01-26T04:45:18;26.88;;;8.77;;
75798;SDS011;65035;44.726;37.764;2023-01-26T04:46:21;25.63;;;7.88;;
75798;SDS011;65035;44.726;37.764;2023-01-26T04:47:24;23.40;;;8.43;;
75798;SDS011;65035;44.726;37.764;2023-01-26T04:48:30;21.52;;;7.75;;
75798;SDS011;65035;44.726;37.764;2023-01-26T04:49:33;21.75;;;7.95;;
75798;SDS011;65035;44.726;37.764;2023-01-26T04:50:37;24.67;;;8.15;;
75798;SDS011;65035;44.726;37.764;2023-01-26T04:51:40;22.67;;;7.70;;
75798;SDS011;65035;44.726;37.764;2023-01-26T04:52:43;26.98;;;8.20;;
75798;SDS011;65035;44.726;37.764;2023-01-26T04:53:46;20.10;;;8.25;;
75798;SDS011;65035;44.726;37.764;2023-01-26T04:54:50;20.50;;;8.10;;
75798;SDS011;65035;44.726;37.764;2023-01-26T04:55:54;24.55;;;8.48;;
75798;SDS011;65035;44.726;37.764;2023-01-26T04:56:57;22.27;;;7.25;;
75798;SDS011;65035;44.726;37.764;2023-01-26T04:58:00;22.70;;;7.50;;
75798;SDS011;65035;44.726;37.764;2023-01-26T04:59:06;22.08;;;6.97;;
75798;SDS011;65035;44.726;37.764;2023-01-26T05:00:11;19.38;;;7.13;;
75798;SDS011;65035;44.726;37.764;2023-01-26T05:01:15;23.95;;;7.72;;
75798;SDS011;65035;44.726;37.764;2023-01-26T05:02:19;21.63;;;7.70;;
75798;SDS011;65035;44.726;37.764;2023-01-26T05:03:23;19.95;;;7.50;;
75798;SDS011;65035;44.726;37.764;2023-01-26T05:04:27;17.65;;;6.50;;
75798;SDS011;65035;44.726;37.764;2023-01-26T05:05:33;19.52;;;6.38;;
75798;SDS011;65035;44.726;37.764;2023-01-26T05:06:40;20.35;;;7.00;;
75798;SDS011;65035;44.726;37.764;2023-01-26T05:07:46;17.33;;;6.93;;
75798;SDS011;65035;44.726;37.764;2023-01-26T05:08:52;20.83;;;7.28;;
75798;SDS011;65035;44.726;37.764;2023-01-26T05:09:59;20.20;;;7.63;;
75798;SDS011;65035;44.726;37.764;2023-01-26T05:11:37;18.48;;;7.13;;
75798;SDS011;65035;44.726;37.764;2023-01-26T05:13:09;16.42;;;7.47;;
75798;SDS011;65035;44.726;37.764;2023-01-26T05:14:34;18.48;;;7.10;;
75798;SDS011;65035;44.726;37.764;2023-01-26T05:15:57;17.75;;;7.10;;
75798;SDS011;65035;44.726;37.764;2023-01-26T05:17:22;14.85;;;6.68;;
75798;SDS011;65035;44.726;37.764;2023-01-26T05:18:52;19.17;;;5.82;;
75798;SDS011;65035;44.726;37.764;2023-01-26T05:20:12;16.92;;;6.45;;
75798;SDS011;65035;44.726;37.764;2023-01-26T05:21:33;16.25;;;5.72;;
75798;SDS011;65035;44.726;37.764;2023-01-26T05:22:36;17.05;;;6.22;;
75798;SDS011;65035;44.726;37.764;2023-01-26T05:24:02;17.88;;;6.00;;
75798;SDS011;65035;44.726;37.764;2023-01-26T05:25:24;13.23;;;6.90;;
75798;SDS011;65035;44.726;37.764;2023-01-26T05:26:39;16.38;;;6.43;;
75798;SDS011;65035;44.726;37.764;2023-01-26T05:27:47;18.70;;;6.88;;
75798;SDS011;65035;44.726;37.764;2023-01-26T05:28:50;18.70;;;6.75;;
75798;SDS011;65035;44.726;37.764;2023-01-26T05:29:53;15.15;;;6.25;;
75798;SDS011;65035;44.726;37.764;2023-01-26T05:31:04;13.10;;;6.30;;
75798;SDS011;65035;44.726;37.764;2023-01-26T05:32:07;13.82;;;6.43;;
75798;SDS011;65035;44.726;37.764;2023-01-26T05:33:10;13.20;;;6.40;;
75798;SDS011;65035;44.726;37.764;2023-01-26T05:34:13;14.95;;;6.03;;
75798;SDS011;65035;44.726;37.764;2023-01-26T05:35:17;14.90;;;6.15;;
75798;SDS011;65035;44.726;37.764;2023-01-26T05:36:19;14.38;;;6.53;;
75798;SDS011;65035;44.726;37.764;2023-01-26T05:37:23;13.27;;;5.82;;
75798;SDS011;65035;44.726;37.764;2023-01-26T05:38:27;12.40;;;6.40;;
75798;SDS011;65035;44.726;37.764;2023-01-26T05:39:31;14.65;;;5.55;;
75798;SDS011;65035;44.726;37.764;2023-01-26T05:40:35;12.00;;;5.68;;
75798;SDS011;65035;44.726;37.764;2023-01-26T05:41:38;15.15;;;5.78;;
75798;SDS011;65035;44.726;37.764;2023-01-26T05:43:07;13.45;;;5.68;;
75798;SDS011;65035;44.726;37.764;2023-01-26T05:44:34;14.40;;;5.45;;
75798;SDS011;65035;44.726;37.764;2023-01-26T05:45:45;11.15;;;5.03;;
75798;SDS011;65035;44.726;37.764;2023-01-26T05:46:50;13.13;;;5.82;;
75798;SDS011;65035;44.726;37.764;2023-01-26T05:47:53;13.38;;;5.60;;
75798;SDS011;65035;44.726;37.764;2023-01-26T05:48:56;13.13;;;5.60;;
75798;SDS011;65035;44.726;37.764;2023-01-26T05:50:00;9.23;;;4.80;;
75798;SDS011;65035;44.726;37.764;2023-01-26T05:51:05;14.18;;;6.57;;
75798;SDS011;65035;44.726;37.764;2023-01-26T05:52:11;11.77;;;5.55;;
75798;SDS011;65035;44.726;37.764;2023-01-26T05:53:17;13.05;;;5.28;;
75798;SDS011;65035;44.726;37.764;2023-01-26T05:54:21;12.50;;;5.25;;
75798;SDS011;65035;44.726;37.764;2023-01-26T05:55:27;9.95;;;4.95;;
75798;SDS011;65035;44.726;37.764;2023-01-26T05:56:31;13.73;;;5.72;;
75798;SDS011;65035;44.726;37.764;2023-01-26T05:57:37;13.75;;;5.93;;
75798;SDS011;65035;44.726;37.764;2023-01-26T05:58:42;12.32;;;4.72;;
75798;SDS011;65035;44.726;37.764;2023-01-26T05:59:47;13.10;;;5.43;;
75798;SDS011;65035;44.726;37.764;2023-01-26T06:00:51;14.10;;;5.60;;
75798;SDS011;65035;44.726;37.764;2023-01-26T06:02:00;13.27;;;5.05;;
75798;SDS011;65035;44.726;37.764;2023-01-26T06:03:03;11.32;;;5.30;;
75798;SDS011;65035;44.726;37.764;2023-01-26T06:04:06;10.98;;;5.82;;
75798;SDS011;65035;44.726;37.764;2023-01-26T06:06:20;13.63;;;5.15;;
75798;SDS011;65035;44.726;37.764;2023-01-26T06:07:31;9.10;;;5.13;;
75798;SDS011;65035;44.726;37.764;2023-01-26T06:09:00;11.60;;;5.05;;
75798;SDS011;65035;44.726;37.764;2023-01-26T06:10:23;9.75;;;5.18;;
75798;SDS011;65035;44.726;37.764;2023-01-26T06:11:36;11.30;;;5.47;;
75798;SDS011;65035;44.726;37.764;2023-01-26T06:12:42;10.65;;;5.25;;
75798;SDS011;65035;44.726;37.764;2023-01-26T06:13:53;11.10;;;4.60;;
75798;SDS011;65035;44.726;37.764;2023-01-26T06:15:01;8.77;;;5.32;;
75798;SDS011;65035;44.726;37.764;2023-01-26T06:16:23;12.52;;;5.35;;
75798;SDS011;65035;44.726;37.764;2023-01-26T06:17:26;9.82;;;4.82;;
75798;SDS011;65035;44.726;37.764;2023-01-26T06:18:32;10.10;;;5.57;;
75798;SDS011;65035;44.726;37.764;2023-01-26T06:19:35;12.75;;;6.18;;
75798;SDS011;65035;44.726;37.764;2023-01-26T06:20:38;9.85;;;5.07;;
75798;SDS011;65035;44.726;37.764;2023-01-26T06:21:43;11.43;;;5.22;;
75798;SDS011;65035;44.726;37.764;2023-01-26T06:22:47;9.82;;;5.07;;
75798;SDS011;65035;44.726;37.764;2023-01-26T06:23:50;11.85;;;5.55;;
75798;SDS011;65035;44.726;37.764;2023-01-26T06:24:53;10.65;;;5.30;;
75798;SDS011;65035;44.726;37.764;2023-01-26T06:25:59;10.80;;;5.82;;
75798;SDS011;65035;44.726;37.764;2023-01-26T06:27:03;10.93;;;5.00;;
75798;SDS011;65035;44.726;37.764;2023-01-26T06:28:08;11.63;;;5.85;;
75798;SDS011;65035;44.726;37.764;2023-01-26T06:29:11;8.70;;;4.38;;
75798;SDS011;65035;44.726;37.764;2023-01-26T06:30:14;10.30;;;5.53;;
75798;SDS011;65035;44.726;37.764;2023-01-26T06:31:18;11.73;;;5.45;;
75798;SDS011;65035;44.726;37.764;2023-01-26T06:32:22;10.32;;;4.78;;
75798;SDS011;65035;44.726;37.764;2023-01-26T06:33:30;8.65;;;4.18;;
75798;SDS011;65035;44.726;37.764;2023-01-26T06:34:34;10.50;;;5.35;;
75798;SDS011;65035;44.726;37.764;2023-01-26T06:35:37;8.45;;;4.32;;
75798;SDS011;65035;44.726;37.764;2023-01-26T06:36:45;9.20;;;4.85;;
75798;SDS011;65035;44.726;37.764;2023-01-26T06:37:54;11.05;;;5.18;;
75798;SDS011;65035;44.726;37.764;2023-01-26T06:38:57;10.07;;;5.15;;
75798;SDS011;65035;44.726;37.764;2023-01-26T06:40:02;9.32;;;4.50;;
75798;SDS011;65035;44.726;37.764;2023-01-26T06:41:06;9.00;;;4.60;;
75798;SDS011;65035;44.726;37.764;2023-01-26T06:42:10;9.90;;;4.72;;
75798;SDS011;65035;44.726;37.764;2023-01-26T06:43:14;10.40;;;5.03;;
75798;SDS011;65035;44.726;37.764;2023-01-26T06:44:17;11.25;;;5.47;;
75798;SDS011;65035;44.726;37.764;2023-01-26T06:45:20;9.82;;;4.55;;
75798;SDS011;65035;44.726;37.764;2023-01-26T06:46:24;8.93;;;4.43;;
75798;SDS011;65035;44.726;37.764;2023-01-26T06:47:28;9.13;;;5.20;;
75798;SDS011;65035;44.726;37.764;2023-01-26T06:48:33;7.72;;;4.57;;
75798;SDS011;65035;44.726;37.764;2023-01-26T06:49:38;9.18;;;5.05;;
75798;SDS011;65035;44.726;37.764;2023-01-26T06:50:42;9.85;;;5.13;;
75798;SDS011;65035;44.726;37.764;2023-01-26T06:51:49;9.57;;;5.60;;